sensor_id;sensor_type;location;lat;lon;timestamp;P1;durP1;ratioP1;P2;durP2;ratioP2
58137;SDS011;43955;47.362;18.930;2023-04-01T00:01:49;3.83;;;1.40;;
58137;SDS011;43955;47.362;18.930;2023-04-01T00:04:17;5.35;;;1.27;;
58137;SDS011;43955;47.362;18.930;2023-04-01T00:06:44;3.40;;;1.70;;
58137;SDS011;43955;47.362;18.930;2023-04-01T00:09:14;2.22;;;1.30;;
58137;SDS011;43955;47.362;18.930;2023-04-01T00:11:41;4.50;;;1.70;;
58137;SDS011;43955;47.362;18.930;2023-04-01T00:14:09;2.83;;;1.40;;
58137;SDS011;43955;47.362;18.930;2023-04-01T00:16:37;3.08;;;1.33;;
58137;SDS011;43955;47.362;18.930;2023-04-01T00:19:04;4.15;;;1.60;;
58137;SDS011;43955;47.362;18.930;2023-04-01T00:21:31;3.78;;;1.77;;
58137;SDS011;43955;47.362;18.930;2023-04-01T00:23:59;4.43;;;1.60;;
58137;SDS011;43955;47.362;18.930;2023-04-01T00:26:27;3.85;;;1.60;;
58137;SDS011;43955;47.362;18.930;2023-04-01T00:28:54;4.60;;;2.08;;
58137;SDS011;43955;47.362;18.930;2023-04-01T00:31:21;3.15;;;1.95;;
58137;SDS011;43955;47.362;18.930;2023-04-01T00:33:49;3.25;;;1.60;;
58137;SDS011;43955;47.362;18.930;2023-04-01T00:36:19;4.20;;;2.08;;
58137;SDS011;43955;47.362;18.930;2023-04-01T00:38:48;4.07;;;1.90;;
58137;SDS011;43955;47.362;18.930;2023-04-01T00:41:17;3.08;;;2.00;;
58137;SDS011;43955;47.362;18.930;2023-04-01T00:43:47;4.20;;;2.10;;
58137;SDS011;43955;47.362;18.930;2023-04-01T00:46:15;3.45;;;1.90;;
58137;SDS011;43955;47.362;18.930;2023-04-01T00:48:47;8.15;;;2.15;;
58137;SDS011;43955;47.362;18.930;2023-04-01T00:51:17;3.60;;;2.00;;
58137;SDS011;43955;47.362;18.930;2023-04-01T00:53:48;4.53;;;2.25;;
58137;SDS011;43955;47.362;18.930;2023-04-01T00:56:18;4.30;;;1.98;;
58137;SDS011;43955;47.362;18.930;2023-04-01T00:58:50;2.97;;;2.10;;
58137;SDS011;43955;47.362;18.930;2023-04-01T01:01:20;3.42;;;2.03;;
58137;SDS011;43955;47.362;18.930;2023-04-01T01:03:49;3.47;;;2.17;;
58137;SDS011;43955;47.362;18.930;2023-04-01T01:09:08;4.37;;;2.17;;
58137;SDS011;43955;47.362;18.930;2023-04-01T01:11:50;3.22;;;1.80;;
58137;SDS011;43955;47.362;18.930;2023-04-01T01:14:34;4.03;;;2.10;;
58137;SDS011;43955;47.362;18.930;2023-04-01T01:17:09;4.00;;;1.80;;
58137;SDS011;43955;47.362;18.930;2023-04-01T01:25:12;4.72;;;2.15;;
58137;SDS011;43955;47.362;18.930;2023-04-01T01:34:20;3.35;;;1.98;;
58137;SDS011;43955;47.362;18.930;2023-04-01T01:36:57;3.87;;;2.35;;
58137;SDS011;43955;47.362;18.930;2023-04-01T01:41:59;4.28;;;2.78;;
58137;SDS011;43955;47.362;18.930;2023-04-01T01:44:29;5.57;;;3.37;;
58137;SDS011;43955;47.362;18.930;2023-04-01T01:46:57;5.15;;;3.20;;
58137;SDS011;43955;47.362;18.930;2023-04-01T01:49:25;6.53;;;3.28;;
58137;SDS011;43955;47.362;18.930;2023-04-01T01:51:57;6.50;;;3.42;;
58137;SDS011;43955;47.362;18.930;2023-04-01T01:54:24;7.82;;;4.50;;
58137;SDS011;43955;47.362;18.930;2023-04-01T01:56:55;6.03;;;3.03;;
58137;SDS011;43955;47.362;18.930;2023-04-01T01:59:30;3.67;;;2.28;;
58137;SDS011;43955;47.362;18.930;2023-04-01T02:02:00;7.28;;;3.40;;
58137;SDS011;43955;47.362;18.930;2023-04-01T02:04:28;6.05;;;2.60;;
58137;SDS011;43955;47.362;18.930;2023-04-01T02:06:58;6.05;;;3.20;;
58137;SDS011;43955;47.362;18.930;2023-04-01T02:09:27;8.65;;;4.05;;
58137;SDS011;43955;47.362;18.930;2023-04-01T02:12:01;10.85;;;5.47;;
58137;SDS011;43955;47.362;18.930;2023-04-01T02:17:47;5.25;;;3.28;;
58137;SDS011;43955;47.362;18.930;2023-04-01T02:20:16;4.45;;;2.47;;
58137;SDS011;43955;47.362;18.930;2023-04-01T02:22:50;3.95;;;2.12;;
58137;SDS011;43955;47.362;18.930;2023-04-01T02:25:20;4.07;;;2.40;;
58137;SDS011;43955;47.362;18.930;2023-04-01T02:27:50;4.55;;;2.42;;
58137;SDS011;43955;47.362;18.930;2023-04-01T02:30:18;4.87;;;2.22;;
58137;SDS011;43955;47.362;18.930;2023-04-01T02:32:46;4.75;;;2.30;;
58137;SDS011;43955;47.362;18.930;2023-04-01T02:35:14;4.25;;;2.03;;
58137;SDS011;43955;47.362;18.930;2023-04-01T02:37:43;6.82;;;2.12;;
58137;SDS011;43955;47.362;18.930;2023-04-01T02:40:12;4.03;;;2.15;;
58137;SDS011;43955;47.362;18.930;2023-04-01T02:42:40;3.95;;;2.03;;
58137;SDS011;43955;47.362;18.930;2023-04-01T02:45:07;5.35;;;2.35;;
58137;SDS011;43955;47.362;18.930;2023-04-01T02:47:35;4.10;;;1.85;;
58137;SDS011;43955;47.362;18.930;2023-04-01T02:50:02;4.10;;;2.05;;
58137;SDS011;43955;47.362;18.930;2023-04-01T02:52:30;5.25;;;2.83;;
58137;SDS011;43955;47.362;18.930;2023-04-01T02:54:58;3.67;;;2.30;;
58137;SDS011;43955;47.362;18.930;2023-04-01T02:57:25;4.28;;;2.10;;
58137;SDS011;43955;47.362;18.930;2023-04-01T02:59:53;3.85;;;1.85;;
58137;SDS011;43955;47.362;18.930;2023-04-01T03:02:20;4.35;;;1.75;;
58137;SDS011;43955;47.362;18.930;2023-04-01T03:04:48;5.05;;;2.25;;
58137;SDS011;43955;47.362;18.930;2023-04-01T03:07:15;3.83;;;1.80;;
58137;SDS011;43955;47.362;18.930;2023-04-01T03:09:43;3.33;;;1.85;;
58137;SDS011;43955;47.362;18.930;2023-04-01T03:12:10;3.17;;;1.90;;
58137;SDS011;43955;47.362;18.930;2023-04-01T03:14:39;3.17;;;1.62;;
58137;SDS011;43955;47.362;18.930;2023-04-01T03:17:06;5.60;;;4.12;;
58137;SDS011;43955;47.362;18.930;2023-04-01T03:19:34;6.05;;;4.22;;
58137;SDS011;43955;47.362;18.930;2023-04-01T03:22:03;5.43;;;2.70;;
58137;SDS011;43955;47.362;18.930;2023-04-01T03:24:30;3.97;;;2.55;;
58137;SDS011;43955;47.362;18.930;2023-04-01T03:26:58;3.10;;;1.90;;
58137;SDS011;43955;47.362;18.930;2023-04-01T03:29:25;4.87;;;2.55;;
58137;SDS011;43955;47.362;18.930;2023-04-01T03:31:53;5.90;;;2.05;;
58137;SDS011;43955;47.362;18.930;2023-04-01T03:34:20;2.80;;;1.95;;
58137;SDS011;43955;47.362;18.930;2023-04-01T03:36:47;2.72;;;1.65;;
58137;SDS011;43955;47.362;18.930;2023-04-01T03:39:14;4.30;;;1.92;;
58137;SDS011;43955;47.362;18.930;2023-04-01T03:41:45;4.47;;;2.30;;
58137;SDS011;43955;47.362;18.930;2023-04-01T03:44:12;4.85;;;1.87;;
58137;SDS011;43955;47.362;18.930;2023-04-01T03:46:41;3.65;;;2.17;;
58137;SDS011;43955;47.362;18.930;2023-04-01T03:49:08;3.28;;;1.62;;
58137;SDS011;43955;47.362;18.930;2023-04-01T03:51:39;3.78;;;2.12;;
58137;SDS011;43955;47.362;18.930;2023-04-01T03:54:07;5.03;;;2.95;;
58137;SDS011;43955;47.362;18.930;2023-04-01T03:56:36;2.92;;;1.60;;
58137;SDS011;43955;47.362;18.930;2023-04-01T03:59:04;3.15;;;1.87;;
58137;SDS011;43955;47.362;18.930;2023-04-01T04:01:34;4.55;;;2.12;;
58137;SDS011;43955;47.362;18.930;2023-04-01T04:04:02;2.90;;;1.70;;
58137;SDS011;43955;47.362;18.930;2023-04-01T04:06:29;3.72;;;1.60;;
58137;SDS011;43955;47.362;18.930;2023-04-01T04:08:56;3.37;;;1.60;;
58137;SDS011;43955;47.362;18.930;2023-04-01T04:11:25;2.83;;;1.45;;
58137;SDS011;43955;47.362;18.930;2023-04-01T04:13:52;3.72;;;1.67;;
58137;SDS011;43955;47.362;18.930;2023-04-01T04:16:22;2.92;;;1.42;;
58137;SDS011;43955;47.362;18.930;2023-04-01T04:18:50;2.53;;;1.67;;
58137;SDS011;43955;47.362;18.930;2023-04-01T04:21:18;2.65;;;1.27;;
58137;SDS011;43955;47.362;18.930;2023-04-01T04:23:45;3.92;;;1.90;;
58137;SDS011;43955;47.362;18.930;2023-04-01T04:26:14;4.20;;;1.48;;
58137;SDS011;43955;47.362;18.930;2023-04-01T04:28:43;4.65;;;2.03;;
58137;SDS011;43955;47.362;18.930;2023-04-01T04:31:11;3.42;;;1.80;;
58137;SDS011;43955;47.362;18.930;2023-04-01T04:33:40;4.55;;;2.25;;
58137;SDS011;43955;47.362;18.930;2023-04-01T04:36:07;5.65;;;2.28;;
58137;SDS011;43955;47.362;18.930;2023-04-01T04:38:35;8.88;;;3.28;;
58137;SDS011;43955;47.362;18.930;2023-04-01T04:41:02;8.07;;;3.20;;
58137;SDS011;43955;47.362;18.930;2023-04-01T04:43:30;10.30;;;4.18;;
58137;SDS011;43955;47.362;18.930;2023-04-01T04:45:59;13.07;;;5.00;;
58137;SDS011;43955;47.362;18.930;2023-04-01T04:48:26;11.77;;;4.10;;
58137;SDS011;43955;47.362;18.930;2023-04-01T04:50:53;5.72;;;2.25;;
58137;SDS011;43955;47.362;18.930;2023-04-01T04:53:21;9.40;;;3.53;;
58137;SDS011;43955;47.362;18.930;2023-04-01T04:55:49;4.00;;;1.70;;
58137;SDS011;43955;47.362;18.930;2023-04-01T04:58:17;4.30;;;2.17;;
58137;SDS011;43955;47.362;18.930;2023-04-01T05:00:45;5.22;;;2.40;;
58137;SDS011;43955;47.362;18.930;2023-04-01T05:03:15;4.15;;;2.25;;
58137;SDS011;43955;47.362;18.930;2023-04-01T05:05:51;4.43;;;2.17;;
58137;SDS011;43955;47.362;18.930;2023-04-01T05:08:19;4.75;;;2.05;;
58137;SDS011;43955;47.362;18.930;2023-04-01T05:10:46;3.60;;;1.87;;
58137;SDS011;43955;47.362;18.930;2023-04-01T05:13:14;7.47;;;3.33;;
58137;SDS011;43955;47.362;18.930;2023-04-01T05:15:42;5.62;;;2.12;;
58137;SDS011;43955;47.362;18.930;2023-04-01T05:18:09;4.35;;;1.92;;
58137;SDS011;43955;47.362;18.930;2023-04-01T05:20:36;3.05;;;1.37;;
58137;SDS011;43955;47.362;18.930;2023-04-01T05:23:04;4.15;;;2.10;;
58137;SDS011;43955;47.362;18.930;2023-04-01T05:25:31;4.40;;;2.22;;
58137;SDS011;43955;47.362;18.930;2023-04-01T05:27:59;4.55;;;2.20;;
58137;SDS011;43955;47.362;18.930;2023-04-01T05:30:26;8.73;;;2.20;;
58137;SDS011;43955;47.362;18.930;2023-04-01T05:32:54;3.17;;;2.00;;
58137;SDS011;43955;47.362;18.930;2023-04-01T05:35:21;3.87;;;2.03;;
58137;SDS011;43955;47.362;18.930;2023-04-01T05:37:49;4.70;;;2.20;;
58137;SDS011;43955;47.362;18.930;2023-04-01T05:40:16;5.55;;;2.15;;
58137;SDS011;43955;47.362;18.930;2023-04-01T05:42:44;3.22;;;1.30;;
58137;SDS011;43955;47.362;18.930;2023-04-01T05:45:11;4.80;;;1.90;;
58137;SDS011;43955;47.362;18.930;2023-04-01T05:47:43;3.75;;;1.70;;
58137;SDS011;43955;47.362;18.930;2023-04-01T05:50:11;4.72;;;1.50;;
58137;SDS011;43955;47.362;18.930;2023-04-01T05:52:38;5.60;;;1.77;;
58137;SDS011;43955;47.362;18.930;2023-04-01T05:55:06;5.10;;;1.80;;
58137;SDS011;43955;47.362;18.930;2023-04-01T05:57:34;8.32;;;2.85;;
58137;SDS011;43955;47.362;18.930;2023-04-01T06:00:03;5.82;;;2.75;;
58137;SDS011;43955;47.362;18.930;2023-04-01T06:02:38;6.55;;;2.28;;
58137;SDS011;43955;47.362;18.930;2023-04-01T06:05:11;5.65;;;2.33;;
58137;SDS011;43955;47.362;18.930;2023-04-01T06:07:45;4.28;;;2.20;;
58137;SDS011;43955;47.362;18.930;2023-04-01T06:10:17;5.00;;;2.08;;
58137;SDS011;43955;47.362;18.930;2023-04-01T06:13:31;4.35;;;2.22;;
58137;SDS011;43955;47.362;18.930;2023-04-01T06:19:40;3.33;;;1.90;;
58137;SDS011;43955;47.362;18.930;2023-04-01T06:55:51;5.55;;;2.28;;
58137;SDS011;43955;47.362;18.930;2023-04-01T06:58:22;5.72;;;2.03;;
58137;SDS011;43955;47.362;18.930;2023-04-01T07:00:59;10.90;;;2.37;;
58137;SDS011;43955;47.362;18.930;2023-04-01T07:03:41;3.60;;;1.83;;
58137;SDS011;43955;47.362;18.930;2023-04-01T07:06:18;2.87;;;1.58;;
58137;SDS011;43955;47.362;18.930;2023-04-01T07:08:48;4.57;;;2.10;;
58137;SDS011;43955;47.362;18.930;2023-04-01T07:11:23;4.35;;;2.05;;
58137;SDS011;43955;47.362;18.930;2023-04-01T07:14:00;4.00;;;1.73;;
58137;SDS011;43955;47.362;18.930;2023-04-01T07:16:31;5.50;;;2.10;;
58137;SDS011;43955;47.362;18.930;2023-04-01T07:21:55;4.78;;;2.17;;
58137;SDS011;43955;47.362;18.930;2023-04-01T07:24:34;5.07;;;1.85;;
58137;SDS011;43955;47.362;18.930;2023-04-01T07:27:08;4.65;;;2.20;;
58137;SDS011;43955;47.362;18.930;2023-04-01T07:29:37;3.28;;;1.83;;
58137;SDS011;43955;47.362;18.930;2023-04-01T07:32:07;3.87;;;2.03;;
58137;SDS011;43955;47.362;18.930;2023-04-01T07:37:34;12.65;;;4.30;;
58137;SDS011;43955;47.362;18.930;2023-04-01T07:48:08;8.20;;;2.85;;
58137;SDS011;43955;47.362;18.930;2023-04-01T07:57:02;4.22;;;1.35;;
58137;SDS011;43955;47.362;18.930;2023-04-01T07:59:27;4.15;;;2.03;;
58137;SDS011;43955;47.362;18.930;2023-04-01T08:10:24;1.85;;;0.60;;
58137;SDS011;43955;47.362;18.930;2023-04-01T08:13:14;5.60;;;1.20;;
58137;SDS011;43955;47.362;18.930;2023-04-01T08:18:37;2.58;;;0.93;;
58137;SDS011;43955;47.362;18.930;2023-04-01T08:21:27;1.85;;;0.75;;
58137;SDS011;43955;47.362;18.930;2023-04-01T08:23:56;4.68;;;1.00;;
58137;SDS011;43955;47.362;18.930;2023-04-01T08:29:04;3.33;;;0.98;;
58137;SDS011;43955;47.362;18.930;2023-04-01T08:31:54;2.75;;;0.80;;
58137;SDS011;43955;47.362;18.930;2023-04-01T08:34:30;2.47;;;0.80;;
58137;SDS011;43955;47.362;18.930;2023-04-01T08:37:03;1.42;;;0.52;;
58137;SDS011;43955;47.362;18.930;2023-04-01T08:46:15;5.10;;;0.80;;
58137;SDS011;43955;47.362;18.930;2023-04-01T08:54:30;3.50;;;1.60;;
58137;SDS011;43955;47.362;18.930;2023-04-01T09:05:26;1.85;;;0.80;;
58137;SDS011;43955;47.362;18.930;2023-04-01T09:08:12;3.30;;;1.17;;
58137;SDS011;43955;47.362;18.930;2023-04-01T09:13:49;3.75;;;0.90;;
58137;SDS011;43955;47.362;18.930;2023-04-01T09:19:33;3.92;;;1.10;;
58137;SDS011;43955;47.362;18.930;2023-04-01T09:25:14;2.22;;;0.98;;
58137;SDS011;43955;47.362;18.930;2023-04-01T09:30:48;3.10;;;1.05;;
58137;SDS011;43955;47.362;18.930;2023-04-01T09:38:39;3.70;;;1.33;;
58137;SDS011;43955;47.362;18.930;2023-04-01T09:52:49;4.43;;;0.80;;
58137;SDS011;43955;47.362;18.930;2023-04-01T09:55:50;3.35;;;0.80;;
58137;SDS011;43955;47.362;18.930;2023-04-01T10:04:47;4.18;;;1.30;;
58137;SDS011;43955;47.362;18.930;2023-04-01T10:52:20;4.10;;;1.30;;
58137;SDS011;43955;47.362;18.930;2023-04-01T11:09:50;3.40;;;1.20;;
58137;SDS011;43955;47.362;18.930;2023-04-01T11:29:39;7.78;;;1.67;;
58137;SDS011;43955;47.362;18.930;2023-04-01T11:32:38;4.50;;;0.85;;
58137;SDS011;43955;47.362;18.930;2023-04-01T11:40:54;1.77;;;0.50;;
58137;SDS011;43955;47.362;18.930;2023-04-01T11:43:30;3.12;;;1.00;;
58137;SDS011;43955;47.362;18.930;2023-04-01T11:46:10;3.45;;;0.70;;
58137;SDS011;43955;47.362;18.930;2023-04-01T11:48:57;1.87;;;0.80;;
58137;SDS011;43955;47.362;18.930;2023-04-01T11:54:14;3.05;;;0.90;;
58137;SDS011;43955;47.362;18.930;2023-04-01T12:14:24;2.78;;;1.12;;
58137;SDS011;43955;47.362;18.930;2023-04-01T12:17:03;5.22;;;0.82;;
58137;SDS011;43955;47.362;18.930;2023-04-01T12:33:52;2.53;;;0.70;;
58137;SDS011;43955;47.362;18.930;2023-04-01T12:44:50;2.17;;;0.80;;
58137;SDS011;43955;47.362;18.930;2023-04-01T12:49:56;2.20;;;0.98;;
58137;SDS011;43955;47.362;18.930;2023-04-01T12:55:37;3.20;;;1.10;;
58137;SDS011;43955;47.362;18.930;2023-04-01T13:11:26;5.07;;;0.98;;
58137;SDS011;43955;47.362;18.930;2023-04-01T13:17:13;2.45;;;0.77;;
58137;SDS011;43955;47.362;18.930;2023-04-01T13:28:52;3.30;;;1.00;;
58137;SDS011;43955;47.362;18.930;2023-04-01T13:31:30;2.85;;;1.15;;
58137;SDS011;43955;47.362;18.930;2023-04-01T13:34:08;4.95;;;1.02;;
58137;SDS011;43955;47.362;18.930;2023-04-01T13:36:55;3.00;;;1.45;;
58137;SDS011;43955;47.362;18.930;2023-04-01T13:39:39;3.87;;;1.05;;
58137;SDS011;43955;47.362;18.930;2023-04-01T14:09:11;4.37;;;1.10;;
58137;SDS011;43955;47.362;18.930;2023-04-01T14:12:06;2.37;;;1.42;;
58137;SDS011;43955;47.362;18.930;2023-04-01T14:14:50;3.42;;;1.10;;
58137;SDS011;43955;47.362;18.930;2023-04-01T14:17:50;4.90;;;1.00;;
58137;SDS011;43955;47.362;18.930;2023-04-01T14:26:21;4.03;;;1.40;;
58137;SDS011;43955;47.362;18.930;2023-04-01T14:32:15;2.35;;;1.30;;
58137;SDS011;43955;47.362;18.930;2023-04-01T14:40:51;2.47;;;1.12;;
58137;SDS011;43955;47.362;18.930;2023-04-01T14:46:08;13.00;;;6.87;;
58137;SDS011;43955;47.362;18.930;2023-04-01T14:48:52;8.55;;;4.47;;
58137;SDS011;43955;47.362;18.930;2023-04-01T14:51:22;7.53;;;4.78;;
58137;SDS011;43955;47.362;18.930;2023-04-01T14:56:40;6.28;;;1.62;;
58137;SDS011;43955;47.362;18.930;2023-04-01T15:06:55;10.65;;;2.37;;
58137;SDS011;43955;47.362;18.930;2023-04-01T15:12:55;3.78;;;1.40;;
58137;SDS011;43955;47.362;18.930;2023-04-01T15:18:07;2.50;;;1.37;;
58137;SDS011;43955;47.362;18.930;2023-04-01T15:31:15;4.40;;;1.20;;
58137;SDS011;43955;47.362;18.930;2023-04-01T15:36:57;2.05;;;1.10;;
58137;SDS011;43955;47.362;18.930;2023-04-01T15:42:26;32.03;;;3.42;;
58137;SDS011;43955;47.362;18.930;2023-04-01T15:44:58;3.33;;;1.27;;
58137;SDS011;43955;47.362;18.930;2023-04-01T15:47:36;3.63;;;1.40;;
58137;SDS011;43955;47.362;18.930;2023-04-01T15:52:43;3.58;;;1.30;;
58137;SDS011;43955;47.362;18.930;2023-04-01T16:21:06;3.35;;;1.40;;
58137;SDS011;43955;47.362;18.930;2023-04-01T16:23:49;4.72;;;1.30;;
58137;SDS011;43955;47.362;18.930;2023-04-01T16:27:24;2.78;;;1.30;;
58137;SDS011;43955;47.362;18.930;2023-04-01T16:29:40;7.90;;;2.83;;
58137;SDS011;43955;47.362;18.930;2023-04-01T16:32:29;1.85;;;0.77;;
58137;SDS011;43955;47.362;18.930;2023-04-01T16:35:10;2.47;;;0.90;;
58137;SDS011;43955;47.362;18.930;2023-04-01T16:40:42;2.45;;;1.10;;
58137;SDS011;43955;47.362;18.930;2023-04-01T16:43:14;1.75;;;0.80;;
58137;SDS011;43955;47.362;18.930;2023-04-01T16:45:56;4.03;;;1.10;;
58137;SDS011;43955;47.362;18.930;2023-04-01T16:54:06;2.22;;;0.82;;
58137;SDS011;43955;47.362;18.930;2023-04-01T16:59:36;5.00;;;1.17;;
58137;SDS011;43955;47.362;18.930;2023-04-01T17:02:35;11.32;;;1.85;;
58137;SDS011;43955;47.362;18.930;2023-04-01T17:05:08;3.45;;;1.27;;
58137;SDS011;43955;47.362;18.930;2023-04-01T17:21:48;20.67;;;4.37;;
58137;SDS011;43955;47.362;18.930;2023-04-01T17:24:38;26.42;;;8.73;;
58137;SDS011;43955;47.362;18.930;2023-04-01T17:38:18;27.37;;;6.75;;
58137;SDS011;43955;47.362;18.930;2023-04-01T18:00:23;11.95;;;6.60;;
58137;SDS011;43955;47.362;18.930;2023-04-01T18:28:14;26.60;;;12.37;;
58137;SDS011;43955;47.362;18.930;2023-04-01T18:31:20;37.95;;;17.95;;
58137;SDS011;43955;47.362;18.930;2023-04-01T18:33:55;40.53;;;14.98;;
58137;SDS011;43955;47.362;18.930;2023-04-01T18:36:44;24.98;;;10.52;;
58137;SDS011;43955;47.362;18.930;2023-04-01T18:41:47;26.23;;;8.80;;
58137;SDS011;43955;47.362;18.930;2023-04-01T18:44:47;18.33;;;7.97;;
58137;SDS011;43955;47.362;18.930;2023-04-01T18:49:55;22.50;;;9.00;;
58137;SDS011;43955;47.362;18.930;2023-04-01T18:52:37;18.40;;;8.98;;
58137;SDS011;43955;47.362;18.930;2023-04-01T19:00:38;16.87;;;7.22;;
58137;SDS011;43955;47.362;18.930;2023-04-01T19:03:10;28.20;;;11.90;;
58137;SDS011;43955;47.362;18.930;2023-04-01T19:05:44;16.65;;;6.60;;
58137;SDS011;43955;47.362;18.930;2023-04-01T19:13:26;14.48;;;6.78;;
58137;SDS011;43955;47.362;18.930;2023-04-01T19:27:50;19.35;;;9.93;;
58137;SDS011;43955;47.362;18.930;2023-04-01T19:30:32;17.50;;;9.02;;
58137;SDS011;43955;47.362;18.930;2023-04-01T19:46:19;21.37;;;8.23;;
58137;SDS011;43955;47.362;18.930;2023-04-01T20:02:38;18.15;;;8.85;;
58137;SDS011;43955;47.362;18.930;2023-04-01T20:08:06;15.48;;;8.15;;
58137;SDS011;43955;47.362;18.930;2023-04-01T20:10:38;18.08;;;9.73;;
58137;SDS011;43955;47.362;18.930;2023-04-01T20:15:44;32.08;;;17.98;;
58137;SDS011;43955;47.362;18.930;2023-04-01T20:20:57;37.35;;;23.05;;
58137;SDS011;43955;47.362;18.930;2023-04-01T20:26:12;18.42;;;10.93;;
58137;SDS011;43955;47.362;18.930;2023-04-01T20:31:47;28.27;;;13.85;;
58137;SDS011;43955;47.362;18.930;2023-04-01T20:39:52;27.20;;;10.82;;
58137;SDS011;43955;47.362;18.930;2023-04-01T20:45:37;16.65;;;7.62;;
58137;SDS011;43955;47.362;18.930;2023-04-01T20:53:04;14.23;;;6.65;;
58137;SDS011;43955;47.362;18.930;2023-04-01T21:01:17;13.93;;;7.40;;
58137;SDS011;43955;47.362;18.930;2023-04-01T21:06:44;11.65;;;5.95;;
58137;SDS011;43955;47.362;18.930;2023-04-01T21:12:15;9.00;;;5.15;;
58137;SDS011;43955;47.362;18.930;2023-04-01T21:18:08;8.50;;;4.72;;
58137;SDS011;43955;47.362;18.930;2023-04-01T21:20:42;8.85;;;3.65;;
58137;SDS011;43955;47.362;18.930;2023-04-01T21:26:23;8.45;;;4.18;;
58137;SDS011;43955;47.362;18.930;2023-04-01T21:34:44;19.55;;;7.90;;
58137;SDS011;43955;47.362;18.930;2023-04-01T21:59:31;6.22;;;3.05;;
58137;SDS011;43955;47.362;18.930;2023-04-01T22:04:40;5.47;;;2.55;;
58137;SDS011;43955;47.362;18.930;2023-04-01T22:07:20;3.75;;;2.20;;
58137;SDS011;43955;47.362;18.930;2023-04-01T22:15:16;4.93;;;2.53;;
58137;SDS011;43955;47.362;18.930;2023-04-01T22:20:59;6.22;;;3.15;;
58137;SDS011;43955;47.362;18.930;2023-04-01T22:26:28;6.32;;;3.35;;
58137;SDS011;43955;47.362;18.930;2023-04-01T22:32:52;6.75;;;2.65;;
58137;SDS011;43955;47.362;18.930;2023-04-01T22:35:08;5.37;;;2.60;;
58137;SDS011;43955;47.362;18.930;2023-04-01T22:42:56;5.40;;;1.90;;
58137;SDS011;43955;47.362;18.930;2023-04-01T22:45:32;5.22;;;1.95;;
58137;SDS011;43955;47.362;18.930;2023-04-01T22:48:35;3.62;;;1.85;;
58137;SDS011;43955;47.362;18.930;2023-04-01T22:51:41;3.53;;;1.70;;
58137;SDS011;43955;47.362;18.930;2023-04-01T22:54:24;3.92;;;1.85;;
58137;SDS011;43955;47.362;18.930;2023-04-01T22:57:04;4.97;;;2.45;;
58137;SDS011;43955;47.362;18.930;2023-04-01T23:02:09;5.30;;;2.45;;
58137;SDS011;43955;47.362;18.930;2023-04-01T23:04:42;3.80;;;1.80;;
58137;SDS011;43955;47.362;18.930;2023-04-01T23:10:27;4.93;;;2.10;;
58137;SDS011;43955;47.362;18.930;2023-04-01T23:12:58;5.07;;;2.30;;
58137;SDS011;43955;47.362;18.930;2023-04-01T23:15:27;4.97;;;2.75;;
58137;SDS011;43955;47.362;18.930;2023-04-01T23:18:06;4.68;;;2.22;;
58137;SDS011;43955;47.362;18.930;2023-04-01T23:20:47;5.65;;;2.55;;
58137;SDS011;43955;47.362;18.930;2023-04-01T23:28:59;4.53;;;2.10;;
58137;SDS011;43955;47.362;18.930;2023-04-01T23:34:01;4.37;;;2.20;;
58137;SDS011;43955;47.362;18.930;2023-04-01T23:36:52;3.45;;;2.03;;
58137;SDS011;43955;47.362;18.930;2023-04-01T23:41:56;5.43;;;1.80;;
58137;SDS011;43955;47.362;18.930;2023-04-01T23:44:26;3.55;;;1.70;;
58137;SDS011;43955;47.362;18.930;2023-04-01T23:46:55;6.15;;;2.00;;
58137;SDS011;43955;47.362;18.930;2023-04-01T23:49:33;6.00;;;1.50;;
58137;SDS011;43955;47.362;18.930;2023-04-01T23:52:05;4.70;;;1.62;;
58137;SDS011;43955;47.362;18.930;2023-04-01T23:55:22;2.07;;;1.20;;
58137;SDS011;43955;47.362;18.930;2023-04-01T23:57:40;3.53;;;1.60;;
